Time;durP1;ratioP1;P1;durP2;ratioP2;P2;SDS_P1;SDS_P2;PMS_P1;PMS_P2;Temp;Humidity;BMP_temperature;BMP_pressure;BME280_temperature;BME280_humidity;BME280_pressure;Samples;Min_cycle;Max_cycle;Signal;HPM_P1;HPM_P2
2021/12/06 00:00:10;;;;;;;;;;;1.5;77.4;;;;;;;;;
2021/12/06 00:05:09;;;;;;;;;;;1.5;77.5;;;;;;;;;
2021/12/06 00:10:09;;;;;;;;;;;1.5;77.2;;;;;;;;;
2021/12/06 00:15:09;;;;;;;;;;;1.5;77.6;;;;;;;;;
2021/12/06 00:20:10;;;;;;;;;;;1.5;77.8;;;;;;;;;
2021/12/06 00:25:09;;;;;;;;;;;1.6;77.5;;;;;;;;;
2021/12/06 00:30:11;;;;;;;;;;;1.6;77.3;;;;;;;;;
2021/12/06 00:35:13;;;;;;;;;;;1.6;77.7;;;;;;;;;
2021/12/06 00:40:09;;;;;;;;;;;1.5;77.8;;;;;;;;;
2021/12/06 00:45:08;;;;;;;;;;;1.6;77.9;;;;;;;;;
2021/12/06 00:50:08;;;;;;;;;;;1.5;77.9;;;;;;;;;
2021/12/06 00:55:09;;;;;;;;;;;1.6;77.7;;;;;;;;;
2021/12/06 01:00:10;;;;;;;;;;;1.5;77.9;;;;;;;;;
2021/12/06 01:05:08;;;;;;;;;;;1.6;77.4;;;;;;;;;
2021/12/06 01:10:09;;;;;;;;;;;1.5;78.0;;;;;;;;;
2021/12/06 01:20:11;;;;;;;;;;;1.4;78.7;;;;;;;;;
2021/12/06 01:25:21;;;;;;;;;;;1.5;78.4;;;;;;;;;
2021/12/06 01:30:34;;;;;;;;;;;1.4;79.2;;;;;;;;;
2021/12/06 01:40:09;;;;;;;;;;;1.4;79.6;;;;;;;;;
2021/12/06 01:45:08;;;;;;;;;;;1.5;79.9;;;;;;;;;
2021/12/06 01:50:11;;;;;;;;;;;1.4;80.1;;;;;;;;;
2021/12/06 01:55:10;;;;;;;;;;;1.4;80.7;;;;;;;;;
2021/12/06 02:00:10;;;;;;;;;;;1.4;80.9;;;;;;;;;
2021/12/06 02:05:08;;;;;;;;;;;1.4;80.5;;;;;;;;;
2021/12/06 02:10:08;;;;;;;;;;;1.4;80.7;;;;;;;;;
2021/12/06 02:15:20;;;;;;;;;;;1.3;81.1;;;;;;;;;
2021/12/06 02:20:10;;;;;;;;;;;1.3;81.2;;;;;;;;;
2021/12/06 02:25:14;;;;;;;;;;;1.3;81.3;;;;;;;;;
2021/12/06 02:30:08;;;;;;;;;;;1.4;81.2;;;;;;;;;
2021/12/06 02:40:10;;;;;;;;;;;1.4;81.4;;;;;;;;;
2021/12/06 02:45:09;;;;;;;;;;;1.4;81.5;;;;;;;;;
2021/12/06 02:50:09;;;;;;;;;;;1.3;81.2;;;;;;;;;
2021/12/06 02:55:24;;;;;;;;;;;1.4;81.0;;;;;;;;;
2021/12/06 03:00:09;;;;;;;;;;;1.4;80.7;;;;;;;;;
2021/12/06 03:05:08;;;;;;;;;;;1.4;80.8;;;;;;;;;
2021/12/06 03:10:08;;;;;;;;;;;1.5;81.0;;;;;;;;;
2021/12/06 03:15:08;;;;;;;;;;;1.5;80.7;;;;;;;;;
2021/12/06 03:20:13;;;;;;;;;;;1.4;82.0;;;;;;;;;
2021/12/06 03:25:09;;;;;;;;;;;1.3;81.7;;;;;;;;;
2021/12/06 03:30:09;;;;;;;;;;;1.3;82.4;;;;;;;;;
2021/12/06 03:35:10;;;;;;;;;;;1.4;81.3;;;;;;;;;
2021/12/06 03:40:09;;;;;;;;;;;1.4;81.8;;;;;;;;;
2021/12/06 03:45:09;;;;;;;;;;;1.5;81.4;;;;;;;;;
2021/12/06 03:50:09;;;;;;;;;;;1.5;81.0;;;;;;;;;
2021/12/06 03:55:09;;;;;;;;;;;1.4;81.0;;;;;;;;;
2021/12/06 04:00:09;;;;;;;;;;;1.5;81.5;;;;;;;;;
2021/12/06 04:05:08;;;;;;;;;;;1.4;81.8;;;;;;;;;
2021/12/06 04:10:09;;;;;;;;;;;1.5;81.5;;;;;;;;;
2021/12/06 04:15:09;;;;;;;;;;;1.5;81.5;;;;;;;;;
2021/12/06 04:20:10;;;;;;;;;;;1.5;81.2;;;;;;;;;
2021/12/06 04:25:10;;;;;;;;;;;1.5;81.3;;;;;;;;;
2021/12/06 04:30:09;;;;;;;;;;;1.5;81.6;;;;;;;;;
2021/12/06 04:35:09;;;;;;;;;;;1.5;81.5;;;;;;;;;
2021/12/06 04:40:10;;;;;;;;;;;1.4;82.3;;;;;;;;;
2021/12/06 04:45:10;;;;;;;;;;;1.5;81.9;;;;;;;;;
2021/12/06 04:50:10;;;;;;;;;;;1.5;81.2;;;;;;;;;
2021/12/06 04:55:12;;;;;;;;;;;1.5;81.7;;;;;;;;;
2021/12/06 05:00:11;;;;;;;;;;;1.4;81.7;;;;;;;;;
2021/12/06 05:05:09;;;;;;;;;;;1.4;81.9;;;;;;;;;
2021/12/06 05:10:09;;;;;;;;;;;1.4;81.9;;;;;;;;;
2021/12/06 05:15:08;;;;;;;;;;;1.4;81.4;;;;;;;;;
2021/12/06 05:20:08;;;;;;;;;;;1.3;82.3;;;;;;;;;
2021/12/06 05:25:09;;;;;;;;;;;1.4;81.9;;;;;;;;;
2021/12/06 05:30:10;;;;;;;;;;;1.3;82.0;;;;;;;;;
2021/12/06 05:35:09;;;;;;;;;;;1.3;82.2;;;;;;;;;
2021/12/06 05:40:10;;;;;;;;;;;1.3;82.1;;;;;;;;;
2021/12/06 05:45:09;;;;;;;;;;;1.3;82.4;;;;;;;;;
2021/12/06 05:50:09;;;;;;;;;;;1.3;81.9;;;;;;;;;
2021/12/06 05:55:09;;;;;;;;;;;1.3;82.3;;;;;;;;;
2021/12/06 06:00:10;;;;;;;;;;;1.3;81.8;;;;;;;;;
2021/12/06 06:05:08;;;;;;;;;;;1.4;81.8;;;;;;;;;
2021/12/06 06:10:08;;;;;;;;;;;1.3;81.7;;;;;;;;;
2021/12/06 06:15:08;;;;;;;;;;;1.3;81.9;;;;;;;;;
2021/12/06 06:20:10;;;;;;;;;;;1.3;83.0;;;;;;;;;
2021/12/06 06:25:08;;;;;;;;;;;1.3;83.6;;;;;;;;;
2021/12/06 06:30:08;;;;;;;;;;;1.4;83.0;;;;;;;;;
2021/12/06 06:35:09;;;;;;;;;;;1.3;82.6;;;;;;;;;
2021/12/06 06:40:09;;;;;;;;;;;1.4;82.3;;;;;;;;;
2021/12/06 06:45:09;;;;;;;;;;;1.3;82.7;;;;;;;;;
2021/12/06 06:50:08;;;;;;;;;;;1.4;82.4;;;;;;;;;
2021/12/06 06:55:09;;;;;;;;;;;1.4;82.5;;;;;;;;;
2021/12/06 07:00:10;;;;;;;;;;;1.4;81.9;;;;;;;;;
2021/12/06 07:05:09;;;;;;;;;;;1.4;82.5;;;;;;;;;
2021/12/06 07:10:09;;;;;;;;;;;1.4;82.1;;;;;;;;;
2021/12/06 07:15:10;;;;;;;;;;;1.4;82.5;;;;;;;;;
2021/12/06 07:20:09;;;;;;;;;;;1.4;82.4;;;;;;;;;
2021/12/06 07:25:09;;;;;;;;;;;1.5;82.1;;;;;;;;;
2021/12/06 07:30:09;;;;;;;;;;;1.4;82.2;;;;;;;;;
2021/12/06 07:35:09;;;;;;;;;;;1.4;82.8;;;;;;;;;
2021/12/06 07:40:10;;;;;;;;;;;1.4;82.5;;;;;;;;;
2021/12/06 07:45:09;;;;;;;;;;;1.4;81.7;;;;;;;;;
2021/12/06 07:50:10;;;;;;;;;;;1.4;82.0;;;;;;;;;
2021/12/06 07:55:11;;;;;;;;;;;1.4;81.9;;;;;;;;;
2021/12/06 08:00:10;;;;;;;;;;;1.4;82.1;;;;;;;;;
2021/12/06 08:05:33;;;;;;;;;;;1.5;81.7;;;;;;;;;
2021/12/06 08:10:08;;;;;;;;;;;1.4;82.6;;;;;;;;;
2021/12/06 08:15:08;;;;;;;;;;;1.3;82.5;;;;;;;;;
2021/12/06 08:20:09;;;;;;;;;;;1.2;83.3;;;;;;;;;
2021/12/06 08:25:09;;;;;;;;;;;1.3;83.2;;;;;;;;;
2021/12/06 08:30:09;;;;;;;;;;;1.3;83.0;;;;;;;;;
2021/12/06 08:35:08;;;;;;;;;;;1.3;83.3;;;;;;;;;
2021/12/06 08:40:09;;;;;;;;;;;1.3;82.6;;;;;;;;;
2021/12/06 08:45:09;;;;;;;;;;;1.4;81.8;;;;;;;;;
2021/12/06 08:50:09;;;;;;;;;;;1.4;81.2;;;;;;;;;
2021/12/06 08:55:09;;;;;;;;;;;1.5;80.6;;;;;;;;;
2021/12/06 09:00:10;;;;;;;;;;;1.6;80.2;;;;;;;;;
2021/12/06 09:05:09;;;;;;;;;;;1.7;80.4;;;;;;;;;
2021/12/06 09:10:10;;;;;;;;;;;1.6;80.5;;;;;;;;;
2021/12/06 09:15:10;;;;;;;;;;;1.6;80.7;;;;;;;;;
2021/12/06 09:20:11;;;;;;;;;;;1.7;80.4;;;;;;;;;
2021/12/06 09:25:09;;;;;;;;;;;1.7;80.2;;;;;;;;;
2021/12/06 09:30:10;;;;;;;;;;;1.7;80.1;;;;;;;;;
2021/12/06 09:35:19;;;;;;;;;;;1.7;80.4;;;;;;;;;
2021/12/06 09:40:09;;;;;;;;;;;1.7;79.5;;;;;;;;;
2021/12/06 09:45:10;;;;;;;;;;;1.7;79.8;;;;;;;;;
2021/12/06 09:50:08;;;;;;;;;;;1.7;80.6;;;;;;;;;
2021/12/06 09:55:09;;;;;;;;;;;1.6;80.6;;;;;;;;;
2021/12/06 10:00:09;;;;;;;;;;;1.7;80.3;;;;;;;;;
2021/12/06 10:05:08;;;;;;;;;;;1.7;80.0;;;;;;;;;
2021/12/06 10:10:11;;;;;;;;;;;1.6;80.4;;;;;;;;;
2021/12/06 10:15:09;;;;;;;;;;;1.7;80.4;;;;;;;;;
2021/12/06 10:20:09;;;;;;;;;;;1.8;79.7;;;;;;;;;
2021/12/06 10:25:08;;;;;;;;;;;1.9;79.0;;;;;;;;;
2021/12/06 10:30:11;;;;;;;;;;;1.9;79.2;;;;;;;;;
2021/12/06 10:35:10;;;;;;;;;;;1.8;79.3;;;;;;;;;
2021/12/06 10:40:10;;;;;;;;;;;1.8;79.2;;;;;;;;;
2021/12/06 10:45:11;;;;;;;;;;;1.9;79.1;;;;;;;;;
2021/12/06 10:50:10;;;;;;;;;;;1.9;80.2;;;;;;;;;
2021/12/06 10:55:08;;;;;;;;;;;1.8;79.6;;;;;;;;;
2021/12/06 11:00:25;;;;;;;;;;;1.8;80.1;;;;;;;;;
2021/12/06 11:05:20;;;;;;;;;;;1.9;80.0;;;;;;;;;
2021/12/06 11:10:10;;;;;;;;;;;1.9;79.8;;;;;;;;;
2021/12/06 11:15:11;;;;;;;;;;;2.0;79.6;;;;;;;;;
2021/12/06 11:20:19;;;;;;;;;;;2.0;78.9;;;;;;;;;
2021/12/06 11:25:08;;;;;;;;;;;2.0;79.1;;;;;;;;;
2021/12/06 11:30:10;;;;;;;;;;;1.9;78.8;;;;;;;;;
2021/12/06 11:35:09;;;;;;;;;;;2.0;79.5;;;;;;;;;
2021/12/06 11:40:10;;;;;;;;;;;2.0;78.8;;;;;;;;;
2021/12/06 11:45:08;;;;;;;;;;;2.0;78.9;;;;;;;;;
2021/12/06 11:50:08;;;;;;;;;;;2.0;78.8;;;;;;;;;
2021/12/06 11:55:10;;;;;;;;;;;2.0;78.8;;;;;;;;;
2021/12/06 12:05:11;;;;;;;;;;;1.9;78.6;;;;;;;;;
2021/12/06 12:10:08;;;;;;;;;;;1.9;79.6;;;;;;;;;
2021/12/06 12:15:08;;;;;;;;;;;2.0;78.7;;;;;;;;;
2021/12/06 12:20:10;;;;;;;;;;;2.0;79.0;;;;;;;;;
2021/12/06 12:25:15;;;;;;;;;;;2.1;78.4;;;;;;;;;
2021/12/06 12:30:09;;;;;;;;;;;2.2;78.7;;;;;;;;;
2021/12/06 12:35:11;;;;;;;;;;;2.2;78.4;;;;;;;;;
2021/12/06 12:40:10;;;;;;;;;;;2.2;78.2;;;;;;;;;
2021/12/06 12:45:14;;;;;;;;;;;2.2;77.6;;;;;;;;;
2021/12/06 12:50:10;;;;;;;;;;;2.1;78.1;;;;;;;;;
2021/12/06 12:55:19;;;;;;;;;;;2.2;78.0;;;;;;;;;
2021/12/06 13:00:15;;;;;;;;;;;2.2;78.4;;;;;;;;;
2021/12/06 13:05:11;;;;;;;;;;;2.1;78.8;;;;;;;;;
2021/12/06 13:10:25;;;;;;;;;;;2.0;78.7;;;;;;;;;
2021/12/06 13:15:10;;;;;;;;;;;2.1;79.2;;;;;;;;;
2021/12/06 13:20:10;;;;;;;;;;;2.0;79.2;;;;;;;;;
2021/12/06 13:25:09;;;;;;;;;;;2.1;79.1;;;;;;;;;
2021/12/06 13:30:12;;;;;;;;;;;2.2;78.6;;;;;;;;;
2021/12/06 13:35:16;;;;;;;;;;;2.2;79.1;;;;;;;;;
2021/12/06 13:40:14;;;;;;;;;;;2.2;78.6;;;;;;;;;
2021/12/06 13:45:15;;;;;;;;;;;2.2;78.7;;;;;;;;;
2021/12/06 13:50:09;;;;;;;;;;;2.1;78.4;;;;;;;;;
2021/12/06 13:55:24;;;;;;;;;;;2.2;78.8;;;;;;;;;
2021/12/06 14:00:11;;;;;;;;;;;2.2;78.7;;;;;;;;;
2021/12/06 14:05:34;;;;;;;;;;;2.2;79.6;;;;;;;;;
2021/12/06 14:10:12;;;;;;;;;;;2.2;79.0;;;;;;;;;
2021/12/06 14:15:17;;;;;;;;;;;2.3;78.3;;;;;;;;;
2021/12/06 14:20:10;;;;;;;;;;;2.3;78.7;;;;;;;;;
2021/12/06 14:25:12;;;;;;;;;;;2.3;78.9;;;;;;;;;
2021/12/06 14:30:09;;;;;;;;;;;2.3;78.4;;;;;;;;;
2021/12/06 14:35:08;;;;;;;;;;;2.3;78.1;;;;;;;;;
2021/12/06 14:40:09;;;;;;;;;;;2.3;78.7;;;;;;;;;
2021/12/06 14:45:15;;;;;;;;;;;2.3;77.8;;;;;;;;;
2021/12/06 14:55:26;;;;;;;;;;;2.3;78.2;;;;;;;;;
2021/12/06 15:00:10;;;;;;;;;;;2.3;78.4;;;;;;;;;
2021/12/06 15:05:09;;;;;;;;;;;2.2;77.8;;;;;;;;;
2021/12/06 15:10:11;;;;;;;;;;;2.3;77.7;;;;;;;;;
2021/12/06 15:15:08;;;;;;;;;;;2.2;77.9;;;;;;;;;
2021/12/06 15:20:08;;;;;;;;;;;2.2;76.8;;;;;;;;;
2021/12/06 15:25:08;;;;;;;;;;;2.1;77.5;;;;;;;;;
2021/12/06 15:30:11;;;;;;;;;;;2.2;77.1;;;;;;;;;
2021/12/06 15:35:08;;;;;;;;;;;2.1;77.7;;;;;;;;;
2021/12/06 15:40:10;;;;;;;;;;;2.0;77.4;;;;;;;;;
2021/12/06 15:45:11;;;;;;;;;;;2.1;76.9;;;;;;;;;
2021/12/06 15:50:11;;;;;;;;;;;2.0;77.3;;;;;;;;;
2021/12/06 15:55:14;;;;;;;;;;;2.0;76.0;;;;;;;;;
2021/12/06 16:00:11;;;;;;;;;;;2.0;76.7;;;;;;;;;
2021/12/06 16:05:10;;;;;;;;;;;2.0;75.6;;;;;;;;;
2021/12/06 16:10:11;;;;;;;;;;;1.9;76.1;;;;;;;;;
2021/12/06 16:15:08;;;;;;;;;;;1.8;75.8;;;;;;;;;
2021/12/06 16:20:08;;;;;;;;;;;1.9;75.1;;;;;;;;;
2021/12/06 16:25:08;;;;;;;;;;;2.0;73.8;;;;;;;;;
2021/12/06 16:30:08;;;;;;;;;;;2.0;73.6;;;;;;;;;
2021/12/06 16:35:12;;;;;;;;;;;2.0;73.2;;;;;;;;;
2021/12/06 16:40:08;;;;;;;;;;;2.0;72.9;;;;;;;;;
2021/12/06 16:45:10;;;;;;;;;;;1.9;72.8;;;;;;;;;
2021/12/06 16:50:10;;;;;;;;;;;1.7;73.0;;;;;;;;;
2021/12/06 16:55:10;;;;;;;;;;;1.8;73.0;;;;;;;;;
2021/12/06 17:00:10;;;;;;;;;;;1.8;72.8;;;;;;;;;
2021/12/06 17:05:10;;;;;;;;;;;1.8;73.2;;;;;;;;;
2021/12/06 17:10:24;;;;;;;;;;;1.8;72.9;;;;;;;;;
2021/12/06 17:15:13;;;;;;;;;;;1.8;73.0;;;;;;;;;
2021/12/06 17:20:15;;;;;;;;;;;1.8;73.3;;;;;;;;;
2021/12/06 17:30:10;;;;;;;;;;;1.8;73.4;;;;;;;;;
2021/12/06 17:35:08;;;;;;;;;;;1.8;73.9;;;;;;;;;
2021/12/06 17:40:08;;;;;;;;;;;1.8;75.0;;;;;;;;;
2021/12/06 17:45:08;;;;;;;;;;;1.7;75.0;;;;;;;;;
2021/12/06 17:50:09;;;;;;;;;;;1.7;75.9;;;;;;;;;
2021/12/06 17:55:10;;;;;;;;;;;1.6;76.1;;;;;;;;;
2021/12/06 18:00:11;;;;;;;;;;;1.7;75.7;;;;;;;;;
2021/12/06 18:05:14;;;;;;;;;;;1.7;75.5;;;;;;;;;
2021/12/06 18:10:09;;;;;;;;;;;1.7;75.4;;;;;;;;;
2021/12/06 18:15:10;;;;;;;;;;;1.7;75.5;;;;;;;;;
2021/12/06 18:25:10;;;;;;;;;;;1.6;76.0;;;;;;;;;
2021/12/06 18:30:12;;;;;;;;;;;1.7;76.2;;;;;;;;;
2021/12/06 18:35:09;;;;;;;;;;;1.7;75.5;;;;;;;;;
2021/12/06 18:40:13;;;;;;;;;;;1.7;75.3;;;;;;;;;
2021/12/06 18:45:08;;;;;;;;;;;1.7;75.1;;;;;;;;;
2021/12/06 18:50:08;;;;;;;;;;;1.6;75.5;;;;;;;;;
2021/12/06 18:55:09;;;;;;;;;;;1.6;75.4;;;;;;;;;
2021/12/06 19:00:10;;;;;;;;;;;1.6;75.3;;;;;;;;;
2021/12/06 19:05:09;;;;;;;;;;;1.6;75.3;;;;;;;;;
2021/12/06 19:10:10;;;;;;;;;;;1.6;75.2;;;;;;;;;
2021/12/06 19:15:09;;;;;;;;;;;1.7;75.7;;;;;;;;;
2021/12/06 19:20:09;;;;;;;;;;;1.8;75.9;;;;;;;;;
2021/12/06 19:25:09;;;;;;;;;;;1.8;75.4;;;;;;;;;
2021/12/06 19:30:10;;;;;;;;;;;1.8;75.3;;;;;;;;;
2021/12/06 19:35:11;;;;;;;;;;;1.7;75.8;;;;;;;;;
2021/12/06 19:40:10;;;;;;;;;;;1.8;75.0;;;;;;;;;
2021/12/06 19:45:09;;;;;;;;;;;1.8;75.3;;;;;;;;;
2021/12/06 19:50:09;;;;;;;;;;;1.6;76.1;;;;;;;;;
2021/12/06 19:55:09;;;;;;;;;;;1.7;75.9;;;;;;;;;
2021/12/06 20:05:09;;;;;;;;;;;1.7;76.2;;;;;;;;;
2021/12/06 20:10:09;;;;;;;;;;;1.7;76.0;;;;;;;;;
2021/12/06 20:15:10;;;;;;;;;;;1.6;75.7;;;;;;;;;
2021/12/06 20:20:09;;;;;;;;;;;1.5;75.9;;;;;;;;;
2021/12/06 20:25:09;;;;;;;;;;;1.5;75.8;;;;;;;;;
2021/12/06 20:30:09;;;;;;;;;;;1.4;76.1;;;;;;;;;
2021/12/06 20:35:09;;;;;;;;;;;1.4;76.3;;;;;;;;;
2021/12/06 20:40:09;;;;;;;;;;;1.4;76.2;;;;;;;;;
2021/12/06 20:45:09;;;;;;;;;;;1.3;76.6;;;;;;;;;
2021/12/06 20:55:08;;;;;;;;;;;1.2;77.1;;;;;;;;;
2021/12/06 21:00:09;;;;;;;;;;;1.2;77.5;;;;;;;;;
2021/12/06 21:05:09;;;;;;;;;;;1.2;77.6;;;;;;;;;
2021/12/06 21:10:13;;;;;;;;;;;1.2;77.4;;;;;;;;;
2021/12/06 21:15:29;;;;;;;;;;;1.2;77.1;;;;;;;;;
2021/12/06 21:20:08;;;;;;;;;;;1.0;76.7;;;;;;;;;
2021/12/06 21:25:08;;;;;;;;;;;1.0;76.9;;;;;;;;;
2021/12/06 21:30:09;;;;;;;;;;;1.0;76.8;;;;;;;;;
2021/12/06 21:35:08;;;;;;;;;;;0.8;76.1;;;;;;;;;
2021/12/06 21:40:11;;;;;;;;;;;0.9;76.1;;;;;;;;;
2021/12/06 21:45:08;;;;;;;;;;;0.8;75.4;;;;;;;;;
2021/12/06 21:50:10;;;;;;;;;;;0.8;75.1;;;;;;;;;
2021/12/06 21:55:09;;;;;;;;;;;0.7;74.6;;;;;;;;;
2021/12/06 22:00:10;;;;;;;;;;;0.7;74.9;;;;;;;;;
2021/12/06 22:05:09;;;;;;;;;;;0.7;74.1;;;;;;;;;
2021/12/06 22:15:08;;;;;;;;;;;0.8;74.2;;;;;;;;;
2021/12/06 22:20:09;;;;;;;;;;;0.8;73.8;;;;;;;;;
2021/12/06 22:25:09;;;;;;;;;;;0.7;73.5;;;;;;;;;
2021/12/06 22:30:09;;;;;;;;;;;0.6;73.5;;;;;;;;;
2021/12/06 22:35:09;;;;;;;;;;;0.6;73.7;;;;;;;;;
2021/12/06 22:40:10;;;;;;;;;;;0.6;73.6;;;;;;;;;
2021/12/06 22:45:09;;;;;;;;;;;0.6;73.6;;;;;;;;;
2021/12/06 22:50:10;;;;;;;;;;;0.5;74.0;;;;;;;;;
2021/12/06 22:55:08;;;;;;;;;;;0.4;74.5;;;;;;;;;
2021/12/06 23:00:44;;;;;;;;;;;0.3;75.6;;;;;;;;;
2021/12/06 23:05:08;;;;;;;;;;;0.2;76.3;;;;;;;;;
2021/12/06 23:10:08;;;;;;;;;;;0.2;75.3;;;;;;;;;
2021/12/06 23:15:10;;;;;;;;;;;0.1;75.8;;;;;;;;;
2021/12/06 23:20:08;;;;;;;;;;;0.1;76.1;;;;;;;;;
2021/12/06 23:25:09;;;;;;;;;;;0.1;76.5;;;;;;;;;
2021/12/06 23:30:11;;;;;;;;;;;0.1;75.7;;;;;;;;;
2021/12/06 23:35:12;;;;;;;;;;;0.3;75.7;;;;;;;;;
2021/12/06 23:40:28;;;;;;;;;;;0.3;75.4;;;;;;;;;
2021/12/06 23:50:09;;;;;;;;;;;0.2;75.8;;;;;;;;;
2021/12/06 23:55:08;;;;;;;;;;;0.2;75.6;;;;;;;;;
